Fort Mc Coy, Florida
Current Conditions -  °F | °C
As of 11:15 AM on Thursday 29 Jan 2015 (Local Time) from K28J Reporting Station
Clear Clear  
Wind Chill: 59°   Ceiling: Unl
Heat Index: 59°   Visibility: 10mi
Dew Point: 46°   Wind: 6mph
Humidity: 63%   Direction: 60°ENE
Pressure: 30.36"   Gusts: NA
Location:  29.3142°N, 81.8267°W
Report Text: K28J 291615Z AUTO 06005KT 10SM CLR 15/08 A3036 RMK AO2
Loading
Personal Weather Stations






























Interactive Weather Map New forecast layout! Learn more

10-Day Weather Forecast

Advertisements
Track Severe Weather on mobile